createdAt,value
2018-08-16T00:02:56.025Z,14.70
2018-08-16T00:07:04.205Z,14.70
2018-08-16T00:11:12.347Z,14.60
2018-08-16T00:15:21.552Z,14.60
2018-08-16T00:19:29.729Z,14.50
2018-08-16T00:23:37.889Z,14.50
2018-08-16T00:27:46.024Z,14.40
2018-08-16T00:31:54.172Z,14.40
2018-08-16T00:36:02.329Z,14.30
2018-08-16T00:40:12.851Z,14.30
2018-08-16T00:44:21.000Z,14.20
2018-08-16T00:48:29.160Z,14.20
2018-08-16T00:52:37.315Z,14.20
2018-08-16T00:56:45.465Z,14.00
2018-08-16T01:00:53.613Z,13.90
2018-08-16T01:05:01.758Z,13.80
2018-08-16T01:09:11.132Z,13.90
2018-08-16T01:13:19.288Z,13.90
2018-08-16T01:17:27.424Z,13.80
2018-08-16T01:21:35.580Z,13.80
2018-08-16T01:25:43.715Z,13.70
2018-08-16T01:29:51.879Z,13.70
2018-08-16T01:34:00.056Z,13.60
2018-08-16T01:38:08.208Z,13.60
2018-08-16T01:42:16.371Z,13.60
2018-08-16T01:46:24.512Z,13.50
2018-08-16T01:50:31.990Z,13.50
2018-08-16T01:54:40.144Z,13.40
2018-08-16T01:58:48.296Z,13.40
2018-08-16T02:02:56.473Z,13.30
2018-08-16T02:07:04.672Z,13.30
2018-08-16T02:11:12.837Z,13.20
2018-08-16T02:15:20.991Z,13.20
2018-08-16T02:19:29.155Z,13.20
2018-08-16T02:23:37.308Z,13.10
2018-08-16T02:27:45.468Z,13.10
2018-08-16T02:31:53.627Z,13.00
2018-08-16T02:36:01.788Z,12.90
2018-08-16T02:40:10.266Z,12.90
2018-08-16T02:44:18.425Z,12.80
2018-08-16T02:48:26.567Z,12.80
2018-08-16T02:52:34.724Z,12.80
2018-08-16T02:56:42.868Z,12.80
2018-08-16T03:00:51.016Z,12.70
2018-08-16T03:04:59.160Z,12.60
2018-08-16T03:09:08.628Z,12.60
2018-08-16T03:13:16.781Z,12.60
2018-08-16T03:17:24.954Z,12.50
2018-08-16T03:21:33.116Z,12.50
2018-08-16T03:25:41.308Z,12.50
2018-08-16T03:29:49.476Z,12.40
2018-08-16T03:33:57.629Z,12.40
2018-08-16T03:38:06.480Z,12.40
2018-08-16T03:42:14.623Z,12.40
2018-08-16T03:46:22.849Z,12.30
2018-08-16T03:50:31.008Z,12.30
2018-08-16T03:54:39.142Z,12.20
2018-08-16T04:02:55.208Z,12.20
2018-08-16T04:07:03.356Z,12.20
2018-08-16T04:11:11.504Z,12.10
2018-08-16T04:15:19.654Z,12.00
2018-08-16T04:19:27.800Z,12.00
2018-08-16T04:23:35.957Z,12.00
2018-08-16T04:27:44.088Z,12.00
2018-08-16T04:31:52.241Z,12.00
2018-08-16T04:36:00.397Z,11.90
2018-08-16T04:40:08.539Z,11.90
2018-08-16T04:44:16.700Z,11.90
2018-08-16T04:48:24.854Z,11.90
2018-08-16T04:52:33.003Z,12.00
2018-08-16T04:56:41.147Z,12.00
2018-08-16T05:00:49.295Z,12.20
2018-08-16T05:04:57.440Z,12.60
2018-08-16T05:09:07.664Z,13.00
2018-08-16T05:13:15.807Z,13.40
2018-08-16T05:17:24.047Z,13.80
2018-08-16T05:21:32.604Z,14.30
2018-08-16T05:25:40.760Z,14.60
2018-08-16T05:29:48.899Z,14.80
2018-08-16T05:33:57.084Z,15.00
2018-08-16T05:38:05.344Z,15.30
2018-08-16T05:42:13.488Z,15.40
2018-08-16T05:46:21.636Z,15.30
2018-08-16T05:50:29.786Z,15.10
2018-08-16T05:54:37.947Z,15.00
2018-08-16T05:58:46.124Z,15.00
2018-08-16T06:02:54.273Z,15.00
2018-08-16T06:07:02.496Z,15.00
2018-08-16T06:11:10.652Z,15.10
2018-08-16T06:15:18.803Z,15.30
2018-08-16T06:19:26.942Z,15.50
2018-08-16T06:23:35.096Z,15.60
2018-08-16T06:27:43.914Z,15.80
2018-08-16T06:31:52.052Z,16.00
2018-08-16T06:36:00.239Z,16.20
2018-08-16T06:40:13.295Z,16.50
2018-08-16T06:44:21.431Z,16.80
2018-08-16T06:48:29.592Z,17.10
2018-08-16T06:52:37.774Z,17.40
2018-08-16T06:56:45.902Z,17.70
2018-08-16T07:00:54.050Z,17.90
2018-08-16T07:05:02.198Z,18.10
2018-08-16T07:09:11.324Z,18.40
2018-08-16T07:13:19.468Z,18.80
2018-08-16T07:17:27.620Z,19.20
2018-08-16T07:21:35.764Z,19.50
2018-08-16T07:25:43.900Z,19.90
2018-08-16T07:29:52.066Z,20.30
2018-08-16T07:34:00.224Z,20.70
2018-08-16T07:38:08.381Z,20.90
2018-08-16T07:42:16.572Z,21.10
2018-08-16T07:46:24.725Z,21.40
2018-08-16T07:50:32.891Z,21.60
2018-08-16T07:54:41.036Z,22.00
2018-08-16T07:58:49.181Z,22.40
2018-08-16T08:02:57.470Z,22.50
2018-08-16T08:07:04.959Z,22.50
2018-08-16T08:11:13.132Z,22.80
2018-08-16T08:15:20.613Z,22.90
2018-08-16T08:19:28.080Z,23.00
2018-08-16T08:23:36.227Z,23.20
2018-08-16T08:27:44.379Z,23.60
2018-08-16T08:31:52.532Z,23.90
2018-08-16T08:36:11.934Z,24.00
2018-08-16T08:40:19.408Z,24.00
2018-08-16T08:44:28.135Z,24.00
2018-08-16T08:48:36.314Z,24.10
2018-08-16T08:52:44.476Z,24.30
2018-08-16T08:57:03.860Z,24.50
2018-08-16T09:01:12.015Z,24.70
2018-08-16T09:05:20.184Z,24.80
2018-08-16T09:09:28.406Z,24.90
2018-08-16T09:13:41.742Z,25.00
2018-08-16T09:17:49.860Z,25.10
2018-08-16T09:21:58.036Z,25.30
2018-08-16T09:26:11.623Z,25.50
2018-08-16T09:30:35.567Z,25.70
2018-08-16T09:34:43.720Z,25.90
2018-08-16T09:38:51.907Z,25.80
2018-08-16T09:43:00.061Z,26.10
2018-08-16T09:47:19.656Z,26.20
2018-08-16T09:51:27.841Z,26.20
2018-08-16T09:55:35.968Z,26.70
2018-08-16T09:59:44.146Z,27.00
2018-08-16T10:03:52.325Z,27.30
2018-08-16T10:08:00.499Z,27.30
2018-08-16T10:12:08.687Z,27.30
2018-08-16T10:16:16.864Z,27.40
2018-08-16T10:20:25.033Z,27.40
2018-08-16T10:24:33.223Z,27.80
2018-08-16T10:28:42.031Z,27.90
2018-08-16T10:32:50.192Z,27.80
2018-08-16T10:36:58.403Z,28.10
2018-08-16T10:41:07.150Z,28.20
2018-08-16T10:45:15.297Z,28.50
2018-08-16T10:49:23.492Z,28.70
2018-08-16T10:53:31.684Z,28.60
2018-08-16T10:57:39.832Z,28.60
2018-08-16T11:01:47.999Z,28.80
2018-08-16T11:10:04.687Z,29.20
2018-08-16T11:14:12.828Z,29.40
2018-08-16T11:18:20.988Z,29.40
2018-08-16T11:22:29.179Z,29.20
2018-08-16T11:26:37.340Z,29.50
2018-08-16T11:30:45.487Z,29.50
2018-08-16T11:34:53.723Z,29.80
2018-08-16T11:39:01.857Z,29.90
2018-08-16T11:43:10.024Z,30.20
2018-08-16T11:47:18.173Z,30.10
2018-08-16T11:51:26.493Z,30.40
2018-08-16T11:55:34.653Z,30.70
2018-08-16T11:59:42.808Z,30.90
2018-08-16T12:03:50.978Z,31.20
2018-08-16T12:07:59.132Z,31.20
2018-08-16T12:12:07.284Z,31.30
2018-08-16T12:16:15.460Z,31.40
2018-08-16T12:20:23.623Z,31.50
2018-08-16T12:24:32.411Z,31.50
2018-08-16T12:28:40.575Z,31.20
2018-08-16T12:32:48.748Z,31.00
2018-08-16T12:36:56.891Z,31.10
2018-08-16T12:41:05.404Z,31.20
2018-08-16T12:45:13.420Z,31.40
2018-08-16T12:49:21.598Z,31.40
2018-08-16T12:53:29.773Z,31.70
2018-08-16T12:57:37.914Z,32.00
2018-08-16T13:01:46.094Z,32.20
2018-08-16T13:05:54.218Z,32.30
2018-08-16T13:10:02.516Z,32.50
2018-08-16T13:14:10.695Z,32.60
2018-08-16T13:18:18.860Z,32.50
2018-08-16T13:22:27.109Z,32.50
2018-08-16T13:26:35.282Z,32.60
2018-08-16T13:30:43.449Z,32.70
2018-08-16T13:34:51.615Z,32.50
2018-08-16T13:38:59.780Z,32.40
2018-08-16T13:43:08.081Z,32.40
2018-08-16T13:47:16.248Z,32.60
2018-08-16T13:51:24.458Z,32.90
2018-08-16T13:55:33.237Z,33.00
2018-08-16T13:59:43.479Z,32.70
2018-08-16T14:03:51.688Z,32.60
2018-08-16T14:07:59.863Z,32.60
2018-08-16T14:12:08.053Z,32.40
2018-08-16T14:16:16.236Z,32.40
2018-08-16T14:20:24.400Z,32.70
2018-08-16T14:24:32.564Z,32.80
2018-08-16T14:28:40.743Z,32.90
2018-08-16T14:32:49.352Z,33.10
2018-08-16T14:36:57.511Z,33.30
2018-08-16T14:41:05.681Z,33.20
2018-08-16T14:45:13.841Z,33.20
2018-08-16T14:49:22.009Z,33.20
2018-08-16T14:53:30.161Z,33.30
2018-08-16T14:57:38.434Z,33.10
2018-08-16T15:01:46.652Z,33.30
2018-08-16T15:05:54.836Z,33.50
2018-08-16T15:10:03.024Z,33.40
2018-08-16T15:14:11.177Z,33.50
2018-08-16T15:18:19.353Z,33.60
2018-08-16T15:22:27.508Z,33.50
2018-08-16T15:26:35.666Z,33.10
2018-08-16T15:30:43.828Z,33.10
2018-08-16T15:34:51.976Z,33.10
2018-08-16T15:39:00.128Z,32.90
2018-08-16T15:43:08.296Z,32.80
2018-08-16T15:47:16.461Z,32.60
2018-08-16T15:51:24.648Z,32.60
2018-08-16T15:55:32.823Z,32.50
2018-08-16T15:59:40.972Z,32.50
2018-08-16T16:03:49.141Z,32.40
2018-08-16T16:07:57.313Z,32.40
2018-08-16T16:12:05.743Z,32.30
2018-08-16T16:16:13.920Z,32.30
2018-08-16T16:20:22.099Z,32.30
2018-08-16T16:24:30.417Z,32.10
2018-08-16T16:28:38.564Z,31.90
2018-08-16T16:32:46.749Z,31.80
2018-08-16T16:36:54.924Z,31.70
2018-08-16T16:41:03.091Z,31.60
2018-08-16T16:45:11.256Z,31.50
2018-08-16T16:49:22.721Z,31.50
2018-08-16T16:53:30.901Z,31.40
2018-08-16T16:57:39.071Z,31.40
2018-08-16T17:01:47.231Z,31.40
2018-08-16T17:05:55.385Z,31.30
2018-08-16T17:10:03.568Z,31.20
2018-08-16T17:14:12.533Z,31.40
2018-08-16T17:18:20.702Z,32.10
2018-08-16T17:22:28.864Z,33.00
2018-08-16T17:26:37.039Z,34.00
2018-08-16T17:30:45.206Z,34.60
2018-08-16T17:34:53.368Z,35.00
2018-08-16T17:39:01.559Z,35.30
2018-08-16T17:43:09.696Z,35.30
2018-08-16T17:47:17.853Z,35.40
2018-08-16T17:51:26.596Z,35.10
2018-08-16T17:55:34.773Z,34.60
2018-08-16T17:59:42.989Z,33.60
2018-08-16T18:03:51.161Z,32.00
2018-08-16T18:07:59.329Z,30.50
2018-08-16T18:12:07.499Z,29.60
2018-08-16T18:16:15.662Z,29.10
2018-08-16T18:20:23.857Z,28.50
2018-08-16T18:24:32.062Z,28.00
2018-08-16T18:28:40.289Z,27.60
2018-08-16T18:32:48.536Z,27.00
2018-08-16T18:36:56.883Z,26.60
2018-08-16T18:41:04.986Z,26.20
2018-08-16T18:45:13.286Z,25.90
2018-08-16T18:49:21.476Z,25.70
2018-08-16T18:53:29.756Z,25.30
2018-08-16T18:57:37.873Z,25.00
2018-08-16T19:05:54.050Z,24.50
2018-08-16T19:10:02.317Z,24.20
2018-08-16T19:14:10.548Z,24.00
2018-08-16T19:18:18.740Z,23.70
2018-08-16T19:22:26.932Z,23.50
2018-08-16T19:26:35.196Z,23.20
2018-08-16T19:30:43.388Z,23.00
2018-08-16T19:34:51.595Z,22.80
2018-08-16T19:38:59.780Z,22.70
2018-08-16T19:43:07.966Z,22.40
2018-08-16T19:47:16.214Z,22.30
2018-08-16T19:51:24.448Z,22.10
2018-08-16T19:55:32.653Z,21.80
2018-08-16T19:59:40.932Z,21.70
2018-08-16T20:03:49.117Z,21.50
2018-08-16T20:07:57.329Z,21.40
2018-08-16T20:12:05.603Z,21.20
2018-08-16T20:16:13.816Z,21.10
2018-08-16T20:20:22.008Z,21.00
2018-08-16T20:24:30.240Z,20.80
2018-08-16T20:28:38.424Z,20.70
2018-08-16T20:36:55.607Z,20.50
2018-08-16T20:41:03.799Z,20.30
2018-08-16T20:45:12.064Z,20.20
2018-08-16T20:49:20.220Z,20.10
2018-08-16T20:53:28.407Z,20.00
2018-08-16T20:57:36.572Z,19.90
2018-08-16T21:01:44.814Z,19.80
2018-08-16T21:05:52.989Z,19.80
2018-08-16T21:10:01.149Z,19.70
2018-08-16T21:14:09.311Z,19.60
2018-08-16T21:18:17.486Z,19.50
2018-08-16T21:22:25.662Z,19.40
2018-08-16T21:26:33.824Z,19.30
2018-08-16T21:30:41.987Z,19.20
2018-08-16T21:34:50.160Z,19.00
2018-08-16T21:38:58.328Z,18.90
2018-08-16T21:43:06.504Z,18.80
2018-08-16T21:47:14.679Z,18.70
2018-08-16T21:51:22.856Z,18.60
2018-08-16T21:55:31.020Z,18.50
2018-08-16T21:59:39.190Z,18.50
2018-08-16T22:03:47.368Z,18.50
2018-08-16T22:08:05.620Z,18.30
2018-08-16T22:12:13.813Z,18.30
2018-08-16T22:16:21.993Z,18.20
2018-08-16T22:20:30.140Z,18.10
2018-08-16T22:24:38.315Z,18.00
2018-08-16T22:28:46.481Z,18.00
2018-08-16T22:32:54.663Z,17.90
2018-08-16T22:37:02.913Z,17.80
2018-08-16T22:41:11.074Z,17.80
2018-08-16T22:45:19.249Z,17.70
2018-08-16T22:49:27.409Z,17.70
2018-08-16T22:53:35.587Z,17.70
2018-08-16T22:57:43.736Z,17.60
2018-08-16T23:01:51.943Z,17.50
2018-08-16T23:06:00.104Z,17.50
2018-08-16T23:10:08.268Z,17.40
2018-08-16T23:14:16.419Z,17.30
2018-08-16T23:18:24.583Z,17.20
2018-08-16T23:22:32.768Z,17.20
2018-08-16T23:26:40.927Z,17.20
2018-08-16T23:30:49.080Z,17.10
2018-08-16T23:34:57.252Z,17.00
2018-08-16T23:39:06.068Z,17.00
2018-08-16T23:43:14.220Z,16.90
2018-08-16T23:47:24.293Z,16.80
2018-08-16T23:51:32.462Z,16.70
2018-08-16T23:55:40.636Z,16.70
2018-08-16T23:59:48.796Z,16.60
